Purerua, New Zealand
Current Conditions -  °F | °C
As of 4:00 AM on Saturday 25 Oct 2014 (Local Time) from NZAA Reporting Station
Clear Clear  
Wind Chill: 42°   Ceiling: Unl
Heat Index: 46°   Visibility: 6mi
Dew Point: 34°   Wind: 9mph
Humidity: 62%   Direction: 180°S
Pressure: 30.15"   Gusts: NA
Location:  35.15°S, 174.04°E
Report Text: NZAA 241600Z AUTO 18008KT 9999 NCD 08/01 Q1021 NOSIG
Loading
Personal Weather Stations






























Interactive Weather Map
Tropical Storm Tracking
New forecast layout! Learn more

10-Day Weather Forecast

Advertisements
Track Severe Weather on mobile